Rocky Mountain Metropolitan Airport
KBJC : now visible

Airfield :











YOU CAN JOIN US ON...

 
LOGIN :

Register | Disclaimer

   EN    FR    IT 

 









Legend :    VFR   Marginal VFR   IFR   Intensive IFR   Very Intensive IFR
Visi :
Ceiling :
>= 8 km
>= 3000ft
5 to 8 km
1000 to 3000 ft
1500m to 5 km
500 to 1000 ft
800 to 1500m
200 to 500 ft
< 800m
< 200 ft
Symbols :   Thunderstorms  Fog  Heavy snow  Heavy precipitations  Wind > 20 kt






- Airport Elevation : 5673 ft


KBJC - Rocky Mountain Metropolitan

CURRENT METAR :
  • 192345Z 35008KT 1SM -SN OVC004 00/00 A3026

EXPIRED METARs :
  • 192245Z 36009KT 1SM -SN OVC004 00/00 A3025
  • 192215Z 01011KT 1/2SM SN OVC002 02/01 A3022
  • 192115Z 03010KT 8SM -RA BKN007 OVC018 03/01 A3022
  • 192045Z 03006KT 8SM -RA BKN010 OVC018 03/01 A3021
  • 191948Z 01011KT 8SM -RA BKN010 OVC018 04/02 A3020

TAF KBJC
Valid from the 20 at 00:00 until the 21 at 00:00 UTC


192323Z 2000/2024 02009KT 1SM -SN BKN005 OVC015
TEMPO 2000/2004 1/2SM SN BR OVC004
FM200400 05008KT 1SM -SN BR BKN005 OVC010
FM201000 03007KT 2SM -SN BR BKN005 OVC010
FM201600 33007KT 4SM -SHSN BR SCT004 OVC008
FM202000 01010KT 4SM BR OVC015
KZDV FIR / North America



MET'MAP, your aeronautical weather chart ! - Copyright ORBIFLY December 2007 - Disclaimer

ORBIFLY MET'MAP TEAM :

Programming & Development : Alexandra Zaïnal
Original concept : Baudouin d'Aumeries
Technical & hardware support : Manuel Goepfert
Assistance : Marc-Olivier Méhu




SOURCES & CREDITS :

   NOAA       Earth
Advisory